Latest Coastal Weather Observations for Flinders Reef

IDQ60701

Issued at 8:01 pm EST Sunday 26 February 2017 (issued every 10 minutes, with the page automatically refreshed every 10 minutes)

About coastal observations | Map of coastal stations | Coastal observations for QLD | Marine services | Other Formats
Station Details ID: 200783 Name: FLINDERS REEF Lat: -17.72 Lon: 148.45 Height: 2.6 m
Data from the previous 72 hours. | See also: Recent months at Flinders Reef
Date/Time
EST
Temp
°C
Wind Pressure Rain since
9am
mm
Weather Cloud Vis
km
Sea
Height
m
Swell
Dir  Spd
kts
Gust
kts
hPa Trend Height
m
Period
s
Dir
26/08:00pm 27.3 E 19 30 1009.6 - - - - - - - - -
26/07:59pm 27.3 E 20 30 1009.6 - - - - - - - - -
26/07:30pm 28.6 E 20 23 1009.1 - - - - - - - - -
26/07:24pm 28.6 ESE 19 - 1009.0 - - - - - - - - -
26/07:00pm 28.6 ESE 19 21 1008.9 - - - - - - - - -
26/06:30pm 28.7 ESE 18 22 1008.6 - - - - - - - - -
26/06:24pm 28.7 ESE 19 - 1008.5 - - - - - - - - -
26/06:00pm 28.8 SE 19 22 1008.6 - - - - - - - - -
26/05:30pm 28.8 SE 19 23 1008.3 - - - - - - - - -
26/05:24pm 28.6 SE 19 - 1008.2 - - - - - - - - -
26/05:00pm 28.4 SE 20 23 1008.3 - - - - - - - - -
26/04:30pm 28.9 ESE 18 21 1008.3 - - - - - - - - -
26/04:24pm 28.8 ESE 18 - 1008.2 - - - - - - - - -
26/04:00pm 28.6 SE 18 21 1008.1 - - - - - - - - -
26/03:30pm 28.6 ESE 19 22 1008.0 - - - - - - - - -
26/03:24pm 28.4 ESE 19 - 1007.9 - - - - - - - - -
26/03:00pm 28.3 SE 19 21 1008.0 - - - - - - - - -
26/02:30pm 28.6 SE 18 22 1008.2 - - - - - - - - -
26/02:24pm 28.7 ESE 18 - 1008.1 - - - - - - - - -
26/02:00pm 28.3 ESE 18 21 1008.2 - - - - - - - - -
26/01:30pm 28.4 ESE 19 23 1008.6 - - - - - - - - -
26/01:24pm 28.5 ESE 19 - 1008.5 - - - - - - - - -
26/01:00pm 28.5 ESE 18 20 1009.0 - - - - - - - - -
26/12:30pm 28.6 ESE 18 20 1009.3 - - - - - - - - -
26/12:24pm 28.5 ESE 18 - 1009.3 - - - - - - - - -
26/12:00pm 28.2 ESE 14 16 1009.6 - - - - - - - - -
26/11:30am 27.8 ESE 18 22 1009.7 - - - - - - - - -
26/11:24am 28.2 ESE 19 - 1009.7 - - - - - - - - -
26/11:00am 28.7 ESE 17 20 1009.9 - - - - - - - - -
26/10:30am 28.4 ESE 18 21 1010.0 - - - - - - - - -
26/10:24am 28.4 ESE 19 - 1010.0 - - - - - - - - -
26/10:00am 28.3 ESE 18 21 1010.0 - - - - - - - - -
26/09:30am 28.2 ESE 18 22 1010.3 - - - - - - - - -
26/09:24am 28.4 ESE 18 - 1010.3 - - - - - - - - -
26/09:00am 28.7 ESE 17 19 1010.5 - - - - - - - - -
26/08:30am 28.5 ESE 14 16 1010.2 - - - - - - - - -
26/08:24am 28.5 ESE 15 - 1010.2 - - - - - - - - -
26/08:00am 28.2 ESE 15 17 1010.0 - - - - - - - - -
26/07:30am 28.4 ESE 14 17 1009.7 - - - - - - - - -
26/07:24am 28.1 ESE 14 - 1009.6 - - - - - - - - -
26/07:00am 28.1 ESE 10 11 1009.4 - - - - - - - - -
26/06:30am 27.3 SE 17 20 1009.0 - - - - - - - - -
26/06:24am 27.2 SE 16 - 1008.8 - - - - - - - - -
26/06:02am 27.2 ESE 15 25 1008.5 - - - - - - - - -
26/06:00am 27.8 ESE 13 23 1008.5 - - - - - - - - -
26/05:30am 28.2 E 11 14 1008.3 - - - - - - - - -
26/05:24am 28.2 E 11 - 1008.1 - - - - - - - - -
26/05:00am 28.2 E 13 15 1008.0 - - - - - - - - -
26/04:30am 28.3 E 13 15 1008.1 - - - - - - - - -
26/04:24am 28.4 E 13 - 1008.0 - - - - - - - - -
26/04:00am 28.3 E 13 16 1008.1 - - - - - - - - -
26/03:30am 28.4 E 12 14 1008.2 - - - - - - - - -
26/03:24am 28.1 E 12 - 1008.0 - - - - - - - - -
26/03:00am 28.2 E 15 17 1008.2 - - - - - - - - -
26/02:30am 28.4 E 16 18 1008.1 - - - - - - - - -
26/02:24am 28.1 E 15 - 1008.0 - - - - - - - - -
26/02:00am 28.0 E 18 20 1008.4 - - - - - - - - -
26/01:30am 28.7 E 18 23 1008.8 - - - - - - - - -
26/01:24am 28.5 E 17 - 1008.8 - - - - - - - - -
26/01:00am 28.6 ESE 16 19 1009.2 - - - - - - - - -
26/12:30am 28.7 ESE 16 19 1009.4 - - - - - - - - -
26/12:24am 28.7 ESE 16 - 1009.4 - - - - - - - - -
26/12:00am 28.6 ESE 19 21 1009.7 - - - - - - - - -
 
Date/Time
EST
Temp
°C
Wind Pressure Rain since
9am
mm
Weather Cloud Vis
km
Sea
Height
m
Swell
Dir  Spd
kts
Gust
kts
hPa Trend Height
m
Period
s
Dir
25/11:30pm 29.0 ESE 19 23 1009.9 - - - - - - - - -
25/11:24pm 28.6 ESE 19 - 1009.8 - - - - - - - - -
25/11:00pm 28.7 ESE 18 22 1010.2 - - - - - - - - -
25/10:30pm 28.9 ESE 18 21 1010.3 - - - - - - - - -
25/10:24pm 28.8 ESE 17 - 1010.2 - - - - - - - - -
25/10:00pm 28.7 ESE 18 21 1010.3 - - - - - - - - -
25/09:30pm 28.8 ESE 19 21 1010.2 - - - - - - - - -
25/09:24pm 28.6 ESE 18 - 1010.1 - - - - - - - - -
25/09:00pm 28.9 ESE 17 20 1010.1 - - - - - - - - -
25/08:30pm 28.9 ESE 18 21 1009.8 - - - - - - - - -
25/08:24pm 28.9 ESE 18 - 1009.7 - - - - - - - - -
25/08:00pm 28.9 ESE 17 20 1009.6 - - - - - - - - -
25/07:30pm 28.9 ESE 18 21 1009.4 - - - - - - - - -
25/07:24pm 29.1 ESE 19 - 1009.2 - - - - - - - - -
25/07:00pm 29.0 ESE 19 22 1009.2 - - - - - - - - -
25/06:30pm 29.0 SE 19 22 1008.9 - - - - - - - - -
25/06:24pm 29.2 SE 19 - 1008.8 - - - - - - - - -
25/06:00pm 29.1 SE 18 21 1008.8 - - - - - - - - -
25/05:30pm 29.0 SE 17 21 1008.7 - - - - - - - - -
25/05:24pm 29.0 SE 17 - 1008.7 - - - - - - - - -
25/05:00pm 29.2 SE 18 21 1008.7 - - - - - - - - -
25/04:30pm 28.5 ESE 13 17 1008.6 - - - - - - - - -
25/04:24pm 28.3 ESE 16 - 1008.5 - - - - - - - - -
25/04:00pm 28.1 SE 23 27 1008.5 - - - - - - - - -
25/03:45pm 28.6 SE 17 27 1008.5 - - - - - - - - -
25/03:30pm 29.0 ESE 17 19 1008.5 - - - - - - - - -
25/03:24pm 28.9 ESE 17 - 1008.5 - - - - - - - - -
25/03:00pm 28.8 SE 17 19 1008.7 - - - - - - - - -
25/02:30pm 28.7 ESE 18 21 1008.7 - - - - - - - - -
25/02:24pm 28.9 ESE 18 - 1008.7 - - - - - - - - -
25/02:00pm 28.4 SE 14 16 1009.2 - - - - - - - - -
25/01:30pm 28.1 SE 21 27 1009.2 - - - - - - - - -
25/01:24pm 29.3 SE 18 - 1009.2 - - - - - - - - -
25/01:00pm 29.2 ESE 17 19 1009.5 - - - - - - - - -
25/12:30pm 29.1 ESE 18 19 1010.0 - - - - - - - - -
25/12:24pm 29.2 ESE 17 - 1010.0 - - - - - - - - -
25/12:00pm 29.3 E 17 21 1010.3 - - - - - - - - -
25/11:30am 29.0 E 15 17 1010.9 - - - - - - - - -
25/11:24am 29.0 E 15 - 1010.9 - - - - - - - - -
25/11:00am 28.9 E 15 17 1011.2 - - - - - - - - -
25/10:30am 28.8 ESE 17 19 1011.4 - - - - - - - - -
25/10:24am 28.9 ESE 17 - 1011.3 - - - - - - - - -
25/10:00am 29.0 ESE 18 22 1011.4 - - - - - - - - -
25/09:30am 28.9 ESE 19 23 1011.4 - - - - - - - - -
25/09:24am 29.1 ESE 19 - 1011.3 - - - - - - - - -
25/09:00am 28.9 ESE 18 21 1011.3 - - - - - - - - -
25/08:30am 29.2 ESE 16 20 1011.2 - - - - - - - - -
25/08:24am 29.0 ESE 16 - 1011.1 - - - - - - - - -
25/08:00am 29.0 ESE 18 21 1011.3 - - - - - - - - -
25/07:30am 29.0 ESE 19 21 1011.1 - - - - - - - - -
25/07:24am 28.8 ESE 18 - 1010.9 - - - - - - - - -
25/07:00am 28.5 ESE 15 18 1010.9 - - - - - - - - -
25/06:30am 28.3 ESE 17 19 1010.5 - - - - - - - - -
25/06:24am 28.5 E 16 - 1010.4 - - - - - - - - -
25/06:00am 28.2 E 16 19 1010.3 - - - - - - - - -
25/05:30am 28.1 E 15 18 1009.9 - - - - - - - - -
25/05:24am 27.9 E 16 - 1009.9 - - - - - - - - -
25/05:00am 27.7 E 13 15 1009.6 - - - - - - - - -
25/04:30am 27.3 E 12 14 1009.7 - - - - - - - - -
25/04:24am 27.2 ENE 14 - 1009.7 - - - - - - - - -
25/04:00am 27.2 ENE 18 23 1009.8 - - - - - - - - -
25/03:30am 28.0 ESE 18 20 1009.7 - - - - - - - - -
25/03:24am 28.1 ESE 18 - 1009.7 - - - - - - - - -
25/03:00am 28.1 ESE 15 20 1009.7 - - - - - - - - -
25/02:30am 27.6 E 13 15 1009.8 - - - - - - - - -
25/02:24am 27.8 E 14 - 1009.7 - - - - - - - - -
25/02:00am 28.0 E 18 21 1009.9 - - - - - - - - -
25/01:30am 27.0 E 18 24 1010.3 - - - - - - - - -
25/01:24am 26.9 E 21 - 1010.3 - - - - - - - - -
25/01:00am 28.7 E 16 19 1010.5 - - - - - - - - -
25/12:30am 28.9 E 16 19 1010.7 - - - - - - - - -
25/12:24am 28.9 E 17 - 1010.7 - - - - - - - - -
25/12:00am 28.6 E 14 17 1011.1 - - - - - - - - -
 
Date/Time
EST
Temp
°C
Wind Pressure Rain since
9am
mm
Weather Cloud Vis
km
Sea
Height
m
Swell
Dir  Spd
kts
Gust
kts
hPa Trend Height
m
Period
s
Dir
24/11:30pm 28.6 ESE 17 19 1011.6 - - - - - - - - -
24/11:24pm 28.6 ESE 17 - 1011.5 - - - - - - - - -
24/11:00pm 29.0 E 17 20 1011.7 - - - - - - - - -
24/10:30pm 28.7 E 16 19 1011.9 - - - - - - - - -
24/10:24pm 28.6 E 17 - 1011.7 - - - - - - - - -
24/10:00pm 29.1 E 17 19 1011.8 - - - - - - - - -
24/09:30pm 29.2 E 17 19 1011.7 - - - - - - - - -
24/09:24pm 29.2 E 16 - 1011.5 - - - - - - - - -
24/09:00pm 28.1 E 12 15 1011.6 - - - - - - - - -
24/08:30pm 27.8 E 12 14 1011.4 - - - - - - - - -
24/08:24pm 27.4 E 10 - 1011.3 - - - - - - - - -
24/08:00pm 27.2 E 11 13 1011.3 - - - - - - - - -
24/07:30pm 26.7 E 10 13 1011.2 - - - - - - - - -
24/07:24pm 26.7 E 10 - 1011.1 - - - - - - - - -
24/07:00pm 26.9 E 18 22 1011.1 - - - - - - - - -
24/06:30pm 28.0 E 20 25 1010.8 - - - - - - - - -
24/06:24pm 28.0 E 19 - 1010.5 - - - - - - - - -
24/06:00pm 29.0 E 14 16 1010.4 - - - - - - - - -
24/05:30pm 28.7 E 14 16 1010.2 - - - - - - - - -
24/05:24pm 28.9 E 14 - 1010.0 - - - - - - - - -
24/05:00pm 28.7 E 14 16 1010.0 - - - - - - - - -
24/04:30pm 28.8 E 14 17 1009.6 - - - - - - - - -
24/04:24pm 29.1 ESE 14 - 1009.6 - - - - - - - - -
24/04:00pm 28.7 ESE 13 15 1009.6 - - - - - - - - -
24/03:30pm 28.5 ESE 13 15 1009.7 - - - - - - - - -
24/03:24pm 28.2 ESE 15 - 1009.6 - - - - - - - - -
24/03:00pm 28.6 ESE 16 17 1009.9 - - - - - - - - -
24/02:30pm 29.0 SE 11 13 1010.3 - - - - - - - - -
24/02:24pm 29.2 SE 11 - 1010.2 - - - - - - - - -
24/02:00pm 29.0 SE 12 14 1010.5 - - - - - - - - -
24/01:30pm 28.9 SE 12 13 1010.8 - - - - - - - - -
24/01:24pm 29.2 SE 11 - 1010.8 - - - - - - - - -
24/01:00pm 29.0 SE 12 14 1011.2 - - - - - - - - -
24/12:30pm 28.9 SE 12 15 1011.7 - - - - - - - - -
24/12:24pm 28.9 SE 12 - 1011.7 - - - - - - - - -
24/12:00pm 28.9 SE 13 15 1012.0 - - - - - - - - -
24/11:30am 28.9 SE 14 15 1012.2 - - - - - - - - -
24/11:24am 28.6 ESE 14 - 1012.3 - - - - - - - - -
24/11:00am 28.2 E 11 13 1012.6 - - - - - - - - -
24/10:30am 27.2 ESE 18 21 1013.0 - - - - - - - - -
24/10:24am 27.0 ESE 20 - 1012.8 - - - - - - - - -
24/10:00am 28.9 ESE 13 15 1013.0 - - - - - - - - -
24/09:30am 28.6 ESE 13 15 1012.9 - - - - - - - - -
24/09:24am 28.7 ESE 14 - 1012.9 - - - - - - - - -
24/09:00am 29.0 ESE 12 15 1012.9 - - - - - - - - -
24/08:30am 28.2 SE 17 20 1012.9 - - - - - - - - -
24/08:24am 28.3 SE 18 - 1012.7 - - - - - - - - -
24/08:00am 28.8 ESE 15 17 1012.6 - - - - - - - - -
24/07:30am 28.7 ESE 12 14 1012.3 - - - - - - - - -
24/07:24am 28.6 ESE 13 - 1012.2 - - - - - - - - -
24/07:00am 28.2 ESE 16 18 1011.9 - - - - - - - - -
24/06:30am 28.6 E 15 18 1011.5 - - - - - - - - -
24/06:24am 28.5 ESE 15 - 1011.4 - - - - - - - - -
24/06:00am 28.5 ESE 14 16 1011.6 - - - - - - - - -
24/05:30am 28.5 ESE 16 18 1011.4 - - - - - - - - -
24/05:24am 28.5 ESE 15 - 1011.2 - - - - - - - - -
24/05:00am 27.9 SE 14 17 1011.2 - - - - - - - - -
24/04:30am 28.2 SE 16 17 1011.2 - - - - - - - - -
24/04:24am 27.9 SE 16 - 1011.1 - - - - - - - - -
24/04:00am 28.0 ESE 12 13 1011.3 - - - - - - - - -
24/03:30am 27.6 E 12 15 1011.4 - - - - - - - - -
24/03:24am 27.3 ESE 13 - 1011.3 - - - - - - - - -
24/03:00am 27.8 ESE 14 15 1011.5 - - - - - - - - -
24/02:30am 27.9 ESE 16 18 1011.9 - - - - - - - - -
24/02:24am 27.7 ESE 16 - 1011.8 - - - - - - - - -
24/02:00am 27.5 ESE 18 22 1011.8 - - - - - - - - -
24/01:30am 27.9 ESE 16 19 1012.3 - - - - - - - - -
24/01:24am 27.8 ESE 16 - 1012.3 - - - - - - - - -
24/01:00am 27.1 ESE 19 23 1012.5 - - - - - - - - -
24/12:30am 28.0 E 16 19 1012.6 - - - - - - - - -
24/12:24am 28.0 E 16 - 1012.6 - - - - - - - - -
24/12:00am 27.0 E 15 20 1012.8 - - - - - - - - -
 
Date/Time
EST
Temp
°C
Wind Pressure Rain since
9am
mm
Weather Cloud Vis
km
Sea
Height
m
Swell
Dir  Spd
kts
Gust
kts
hPa Trend Height
m
Period
s
Dir
23/11:36pm 26.8 E 23 27 1013.1 - - - - - - - - -
23/11:30pm 27.3 ESE 11 14 1013.0 - - - - - - - - -
23/11:24pm 27.0 ESE 10 - 1013.1 - - - - - - - - -
23/11:00pm 26.1 E 15 19 1013.5 - - - - - - - - -
23/10:30pm 25.8 E 19 22 1013.8 - - - - - - - - -
23/10:24pm 25.8 E 18 - 1013.7 - - - - - - - - -
23/10:00pm 26.0 E 17 21 1013.9 - - - - - - - - -
23/09:30pm 26.5 E 20 25 1013.4 - - - - - - - - -
23/09:28pm 26.6 E 20 25 1013.3 - - - - - - - - -
23/09:24pm 27.3 E 19 - 1013.2 - - - - - - - - -
23/09:00pm 26.9 ENE 15 17 1013.0 - - - - - - - - -
23/08:30pm 27.8 E 21 25 1012.7 - - - - - - - - -
23/08:24pm 28.0 E 21 - 1012.5 - - - - - - - - -

Other Formats:

Comma delimited format used in spreadsheet applications
http://www.bom.gov.au/fwo/IDQ60701/IDQ60701.94290.axf

JavaScript Object Notation format (JSON) in row-major order
http://www.bom.gov.au/fwo/IDQ60701/IDQ60701.94290.json